Time;durP1;ratioP1;P1;durP2;ratioP2;P2;SDS_P1;SDS_P2;PMS_P1;PMS_P2;Temp;Humidity;BMP_temperature;BMP_pressure;BME280_temperature;BME280_humidity;BME280_pressure;Samples;Min_cycle;Max_cycle;Signal;HPM_P1;HPM_P2
2020/12/03 00:01:27;;;;;;;36.63;14.85;;;;;;;0.05;77.29;99659.41;5016880;28;20046;-65
2020/12/03 00:03:55;;;;;;;30.38;13.88;;;;;;;-0.34;76.99;99589.28;5033110;28;20041;-65
2020/12/03 00:06:25;;;;;;;29.70;14.10;;;;;;;0.02;76.96;99655.13;5126200;27;20043;-65
2020/12/03 00:08:59;;;;;;;25.60;12.73;;;;;;;0.05;76.55;99662.75;5136297;27;20088;-65
2020/12/03 00:11:29;;;;;;;26.88;12.60;;;;;;;0.00;76.71;99652.53;5136190;27;20061;-67
2020/12/03 00:13:57;;;;;;;29.83;12.15;;;;;;;-0.06;76.87;99644.78;5135150;27;20059;-65
2020/12/03 00:16:27;;;;;;;30.35;12.38;;;;;;;-0.05;76.63;99641.44;5136049;27;20096;-65
2020/12/03 00:18:55;;;;;;;30.00;12.57;;;;;;;0.16;76.99;99658.16;5136493;27;20051;-65
2020/12/03 00:21:31;;;;;;;26.45;12.10;;;;;;;0.11;76.74;99647.94;5135906;27;20112;-65
2020/12/03 00:23:58;;;;;;;26.42;11.80;;;;;;;0.18;76.34;99649.03;5135983;27;20502;-65
2020/12/03 00:26:28;;;;;;;26.80;12.20;;;;;;;0.09;76.50;99641.16;5135716;27;20051;-66
2020/12/03 00:28:56;;;;;;;;;;;;;;;0.18;76.60;99651.56;5136291;27;20063;-67
2020/12/03 00:31:23;;;;;;;26.40;11.00;;;;;;;0.21;76.77;99651.69;5135525;27;20127;-65
2020/12/03 00:33:52;;;;;;;25.85;11.25;;;;;;;0.18;76.73;99654.06;5117585;27;20039;-67
2020/12/03 00:36:20;;;;;;;27.40;11.95;;;;;;;-0.25;76.69;99573.75;5135630;27;20054;-65
2020/12/03 00:38:48;;;;;;;28.15;11.85;;;;;;;0.12;76.40;99636.28;5135603;27;20043;-65
2020/12/03 00:41:16;;;;;;;24.95;11.05;;;;;;;0.20;76.76;99652.47;5135528;27;20040;-65
2020/12/03 00:43:46;;;;;;;31.40;13.85;;;;;;;0.18;76.67;99652.41;5135498;27;20047;-67
2020/12/03 00:46:14;;;;;;;24.58;11.45;;;;;;;0.21;76.67;99646.66;5135437;27;20050;-64
2020/12/03 00:48:42;;;;;;;26.42;11.95;;;;;;;0.23;76.70;99637.53;5116812;27;20062;-65
2020/12/03 00:51:12;;;;;;;26.15;11.27;;;;;;;0.18;76.43;99621.44;5117048;27;20039;-65
2020/12/03 00:53:41;;;;;;;30.83;12.13;;;;;;;0.31;76.37;99638.69;5116959;27;20454;-65
2020/12/03 00:56:10;;;;;;;24.77;10.90;;;;;;;0.35;76.13;99635.50;5134030;27;20035;-65
2020/12/03 00:58:38;;;;;;;27.33;11.32;;;;;;;0.30;76.15;99621.91;5117023;27;20122;-65
2020/12/03 01:01:07;;;;;;;27.73;11.27;;;;;;;0.23;76.14;99597.38;5135109;27;20047;-66
2020/12/03 01:03:35;;;;;;;21.85;11.43;;;;;;;0.36;76.12;99612.13;5135178;27;20153;-66
2020/12/03 01:06:02;;;;;;;27.13;11.20;;;;;;;0.35;76.17;99605.38;5135323;27;20043;-67
2020/12/03 01:08:30;;;;;;;27.60;12.48;;;;;;;0.01;76.37;99538.00;5134851;27;20043;-65
2020/12/03 01:10:58;;;;;;;26.80;12.73;;;;;;;0.34;76.35;99606.16;5134910;27;20045;-65
2020/12/03 01:13:26;;;;;;;28.73;12.82;;;;;;;0.45;76.33;99604.94;5134849;27;20036;-65
2020/12/03 01:15:56;;;;;;;28.58;12.60;;;;;;;0.43;76.11;99588.97;5134897;27;20047;-65
2020/12/03 01:18:25;;;;;;;24.58;12.25;;;;;;;0.43;75.78;99578.94;5134783;27;20047;-65
2020/12/03 01:20:52;;;;;;;26.08;12.18;;;;;;;0.51;75.73;99587.59;5134882;27;20039;-64
2020/12/03 01:23:20;;;;;;;29.02;12.63;;;;;;;0.53;75.54;99586.84;5134620;27;20035;-65
2020/12/03 01:25:48;;;;;;;28.25;12.27;;;;;;;0.54;75.64;99587.72;5134684;27;20047;-66
2020/12/03 01:28:16;;;;;;;25.63;11.60;;;;;;;0.43;75.61;99578.94;5134703;27;20377;-65
2020/12/03 01:30:43;;;;;;;29.73;12.48;;;;;;;0.46;75.57;99569.84;5134540;27;20039;-65
2020/12/03 01:33:11;;;;;;;26.48;12.50;;;;;;;0.53;75.47;99573.44;5134621;27;20493;-65
2020/12/03 01:35:39;;;;;;;28.10;12.10;;;;;;;0.47;75.12;99550.63;5134595;27;20035;-68
2020/12/03 01:38:07;;;;;;;22.30;10.05;;;;;;;0.60;74.88;99562.84;5134930;27;20047;-67
2020/12/03 01:40:34;;;;;;;27.10;10.57;;;;;;;0.64;74.47;99559.63;5134446;27;20412;-66
2020/12/03 01:43:06;;;;;;;21.70;10.10;;;;;;;0.66;74.18;99553.00;5134591;27;20062;-67
2020/12/03 01:45:39;;;;;;;21.67;10.13;;;;;;;0.67;73.99;99550.53;5134828;27;20055;-64
2020/12/03 01:48:07;;;;;;;25.20;10.68;;;;;;;0.68;73.56;99557.28;5134589;28;20047;-64
2020/12/03 01:50:35;;;;;;;24.38;10.88;;;;;;;0.67;73.82;99554.72;5133937;28;20088;-66
2020/12/03 01:53:03;;;;;;;21.73;9.80;;;;;;;0.60;73.64;99543.59;5134483;28;20062;-67
2020/12/03 01:55:31;;;;;;;25.60;11.93;;;;;;;0.65;73.70;99553.78;5134312;28;20047;-65
2020/12/03 01:57:59;;;;;;;23.25;10.60;;;;;;;0.61;73.50;99541.94;5134437;28;20038;-67
2020/12/03 02:00:26;;;;;;;25.50;11.25;;;;;;;0.72;73.48;99545.69;5134525;28;20146;-64
2020/12/03 02:02:54;;;;;;;29.05;11.60;;;;;;;0.72;73.34;99539.84;5134344;28;20043;-65
2020/12/03 02:05:24;;;;;;;22.73;10.45;;;;;;;0.72;73.66;99533.13;5134231;28;20050;-65
2020/12/03 02:07:52;;;;;;;22.70;10.18;;;;;;;0.73;73.19;99524.81;5134962;28;20043;-64
2020/12/03 02:10:21;;;;;;;24.98;10.75;;;;;;;0.68;73.17;99521.28;5134192;28;20045;-65
2020/12/03 02:12:50;;;;;;;22.05;10.75;;;;;;;0.58;73.08;99504.16;5134379;28;20055;-66
2020/12/03 02:15:18;;;;;;;24.38;10.52;;;;;;;0.59;72.43;99510.91;5134304;28;20041;-67
2020/12/03 02:17:46;;;;;;;22.58;10.65;;;;;;;0.72;72.40;99508.00;5134147;28;20565;-64
2020/12/03 02:20:15;;;;;;;21.73;9.73;;;;;;;0.72;72.18;99507.19;5134241;28;20054;-64
2020/12/03 02:22:43;;;;;;;15.25;7.47;;;;;;;0.74;72.44;99508.94;5134211;28;20515;-67
2020/12/03 02:25:11;;;;;;;22.23;10.35;;;;;;;0.72;72.66;99490.44;5134233;28;20074;-67
2020/12/03 02:27:39;;;;;;;27.52;10.38;;;;;;;0.78;72.12;99490.66;5134060;28;20046;-64
2020/12/03 02:30:08;;;;;;;20.58;9.50;;;;;;;0.81;71.34;99480.72;5134067;28;20039;-64
2020/12/03 02:32:37;;;;;;;23.50;10.23;;;;;;;0.78;71.72;99473.09;5134026;28;20125;-66
2020/12/03 02:35:04;;;;;;;20.77;10.57;;;;;;;0.84;71.46;99478.31;5134057;27;20404;-67
2020/12/03 02:37:33;;;;;;;22.80;9.70;;;;;;;0.81;71.02;99464.81;5137245;27;20123;-66
2020/12/03 02:40:01;;;;;;;17.30;8.50;;;;;;;0.87;71.23;99468.38;5138773;27;20079;-67
2020/12/03 02:42:29;;;;;;;22.15;9.77;;;;;;;0.84;71.42;99468.25;5137891;27;20042;-65
2020/12/03 02:44:57;;;;;;;18.83;9.45;;;;;;;0.86;71.50;99466.69;5138100;27;20084;-67
2020/12/03 02:47:25;;;;;;;22.48;9.40;;;;;;;0.56;71.85;99418.78;5137748;27;20496;-65
2020/12/03 02:49:52;;;;;;;20.23;8.95;;;;;;;0.84;72.27;99458.22;5137397;27;20058;-67
2020/12/03 02:52:22;;;;;;;21.67;9.02;;;;;;;0.87;72.44;99448.28;5143281;27;20039;-71
2020/12/03 02:54:50;;;;;;;18.90;9.02;;;;;;;0.60;72.74;99407.19;5141919;27;20051;-65
2020/12/03 02:57:21;;;;;;;17.40;9.20;;;;;;;0.81;72.57;99437.19;5137662;27;20046;-64
2020/12/03 02:59:49;;;;;;;19.05;8.38;;;;;;;0.92;72.32;99461.00;5137509;27;20039;-64
2020/12/03 03:02:17;;;;;;;19.38;8.45;;;;;;;0.89;72.48;99451.69;5137502;27;20054;-64
2020/12/03 03:04:46;;;;;;;17.33;8.48;;;;;;;0.78;72.69;99432.91;5137369;27;20047;-65
2020/12/03 03:07:14;;;;;;;18.25;8.13;;;;;;;0.98;72.26;99441.97;5137430;27;20044;-67
2020/12/03 03:09:42;;;;;;;17.08;7.88;;;;;;;1.02;72.32;99438.75;5137275;27;20397;-65
2020/12/03 03:12:10;;;;;;;19.15;8.23;;;;;;;0.98;72.12;99423.53;5137360;27;20039;-64
2020/12/03 03:14:38;;;;;;;20.77;8.48;;;;;;;1.03;72.22;99435.41;5137276;27;20043;-65
2020/12/03 03:17:05;;;;;;;15.75;7.65;;;;;;;1.06;72.32;99433.00;5118982;27;20039;-64
2020/12/03 03:19:33;;;;;;;16.73;8.73;;;;;;;0.74;72.06;99370.84;5137145;27;20485;-65
2020/12/03 03:22:00;;;;;;;16.38;7.85;;;;;;;1.11;72.01;99429.00;5137064;27;20035;-65
2020/12/03 03:24:28;;;;;;;19.52;9.07;;;;;;;1.13;71.82;99422.34;5137076;27;20043;-65
2020/12/03 03:26:56;;;;;;;17.35;8.45;;;;;;;1.14;72.04;99414.03;5136948;27;20036;-66
2020/12/03 03:29:25;;;;;;;17.23;7.85;;;;;;;1.12;72.16;99409.75;5137037;27;20100;-67
2020/12/03 03:31:54;;;;;;;17.33;7.65;;;;;;;1.08;71.59;99393.72;5136907;27;20067;-64
2020/12/03 03:34:22;;;;;;;16.80;7.18;;;;;;;1.17;71.52;99401.56;5136914;27;20130;-64
2020/12/03 03:36:50;;;;;;;16.85;7.13;;;;;;;1.17;70.90;99396.53;5136784;27;20047;-65
2020/12/03 03:39:19;;;;;;;14.43;7.53;;;;;;;1.20;70.48;99389.06;5136737;27;20397;-64
2020/12/03 03:41:47;;;;;;;;;;;;;;;1.31;69.71;99394.44;5137185;27;20039;-65
2020/12/03 03:44:15;;;;;;;15.13;6.70;;;;;;;1.37;68.47;99391.28;5118442;27;19923;-65
2020/12/03 03:46:43;;;;;;;17.00;6.82;;;;;;;1.30;68.41;99391.06;5136519;27;20043;-65
2020/12/03 03:49:11;;;;;;;17.33;6.85;;;;;;;1.35;68.08;99389.56;5136285;27;20051;-67
2020/12/03 03:51:38;;;;;;;16.98;7.95;;;;;;;1.41;67.80;99393.06;5136461;27;20039;-67
2020/12/03 03:54:06;;;;;;;14.18;7.35;;;;;;;1.39;67.37;99395.53;5136496;27;20084;-67
2020/12/03 03:56:34;;;;;;;13.77;6.47;;;;;;;1.35;67.29;99374.47;5136457;27;20043;-65
2020/12/03 03:59:01;;;;;;;18.80;7.10;;;;;;;1.44;66.99;99378.91;5136390;27;20066;-65
2020/12/03 04:01:30;;;;;;;14.95;6.60;;;;;;;1.53;65.88;99384.25;5136397;27;20050;-66
2020/12/03 04:03:59;;;;;;;15.20;6.40;;;;;;;1.51;65.77;99374.94;5136371;27;20050;-67
2020/12/03 04:06:26;;;;;;;15.35;6.45;;;;;;;1.42;65.49;99349.53;5136258;27;20039;-66
2020/12/03 04:08:54;;;;;;;14.07;6.35;;;;;;;1.57;65.32;99380.13;5136158;27;20047;-66
2020/12/03 04:11:22;;;;;;;12.30;6.00;;;;;;;1.56;65.72;99379.28;5136062;27;20039;-65
2020/12/03 04:13:49;;;;;;;15.63;6.25;;;;;;;1.55;65.51;99366.66;5136098;27;20051;-65
2020/12/03 04:16:17;;;;;;;12.95;5.75;;;;;;;1.56;65.69;99363.38;5136077;27;20082;-64
2020/12/03 04:18:45;;;;;;;15.10;6.35;;;;;;;1.57;65.76;99370.09;5135875;27;20042;-65
2020/12/03 04:21:15;;;;;;;15.68;5.70;;;;;;;1.59;65.88;99355.88;5136201;27;20050;-66
2020/12/03 04:23:42;;;;;;;14.97;6.13;;;;;;;1.17;66.52;99287.63;5135886;27;20035;-65
2020/12/03 04:26:11;;;;;;;13.75;6.55;;;;;;;1.54;66.95;99350.72;5135897;27;20848;-66
2020/12/03 04:28:39;;;;;;;14.23;6.57;;;;;;;1.24;67.20;99282.81;5135750;27;20408;-65
2020/12/03 04:31:06;;;;;;;15.85;6.95;;;;;;;1.58;67.28;99341.63;5135986;27;20046;-64
2020/12/03 04:33:34;;;;;;;14.02;6.28;;;;;;;1.22;67.50;99279.38;5135588;27;20096;-64
2020/12/03 04:36:02;;;;;;;14.05;6.57;;;;;;;1.62;67.77;99329.19;5136010;27;20039;-65
2020/12/03 04:38:30;;;;;;;14.30;6.78;;;;;;;1.24;68.26;99264.38;5135699;27;20035;-65
2020/12/03 04:40:58;;;;;;;15.05;6.55;;;;;;;1.65;67.78;99323.38;5135531;27;20039;-64
2020/12/03 04:43:29;;;;;;;16.00;6.50;;;;;;;1.63;68.29;99312.44;5135496;27;20039;-65
2020/12/03 04:46:01;;;;;;;14.65;6.15;;;;;;;1.55;68.02;99291.25;5135722;27;20051;-69
2020/12/03 04:48:44;;;;;;;14.93;6.78;;;;;;;1.62;68.62;99305.69;5135492;27;20057;-65
2020/12/03 04:51:17;;;;;;;17.55;7.07;;;;;;;1.65;68.79;99308.31;5135288;27;20130;-64
2020/12/03 04:53:51;;;;;;;16.05;6.97;;;;;;;1.47;68.44;99272.56;5135388;27;20385;-65
2020/12/03 04:56:24;;;;;;;11.48;6.03;;;;;;;1.70;68.57;99307.63;5135360;27;20055;-65
2020/12/03 04:58:57;;;;;;;12.70;6.25;;;;;;;1.35;68.69;99247.94;5134891;27;20404;-64
2020/12/03 05:01:50;;;;;;;14.00;6.65;;;;;;;1.72;68.61;99308.53;5135176;27;20493;-63
2020/12/03 05:04:20;;;;;;;11.73;5.53;;;;;;;1.65;69.22;99293.22;5135213;27;20071;-64
2020/12/03 05:06:55;;;;;;;15.18;6.82;;;;;;;1.74;69.57;99295.97;5135155;27;20058;-63
2020/12/03 05:09:27;;;;;;;12.18;5.85;;;;;;;1.64;68.73;99268.84;5135091;27;20047;-64
2020/12/03 05:11:56;;;;;;;12.05;5.43;;;;;;;1.69;69.12;99275.72;5134898;27;20071;-63
2020/12/03 05:14:32;;;;;;;12.50;5.55;;;;;;;1.73;70.35;99274.13;5135353;27;20035;-63
2020/12/03 05:17:09;;;;;;;9.90;4.93;;;;;;;1.80;70.35;99274.34;5135235;27;20043;-65
2020/12/03 05:19:39;;;;;;;11.65;4.57;;;;;;;1.84;70.30;99265.25;5134973;27;20489;-65
2020/12/03 05:22:11;;;;;;;8.38;3.97;;;;;;;1.49;69.01;99180.47;5134770;27;20050;-64
2020/12/03 05:24:40;;;;;;;8.30;4.15;;;;;;;2.01;68.49;99279.97;5135460;27;20054;-64
2020/12/03 05:27:08;;;;;;;8.80;3.72;;;;;;;2.10;68.06;99266.78;5133696;27;20039;-64
2020/12/03 05:29:35;;;;;;;8.57;3.92;;;;;;;2.31;66.01;99269.84;5134823;27;20047;-64
2020/12/03 05:32:03;;;;;;;8.88;4.13;;;;;;;2.42;65.09;99283.56;5134572;27;20054;-64
2020/12/03 05:34:31;;;;;;;11.10;4.78;;;;;;;2.39;65.24;99273.41;5116520;28;20051;-63
2020/12/03 05:37:00;;;;;;;10.43;4.97;;;;;;;2.45;64.20;99271.03;5134673;27;20481;-65
2020/12/03 05:39:31;;;;;;;9.55;5.00;;;;;;;2.46;64.28;99264.31;5134692;27;20062;-66
2020/12/03 05:42:03;;;;;;;10.25;4.47;;;;;;;2.26;63.92;99251.25;5134613;27;20045;-64
2020/12/03 05:44:36;;;;;;;7.53;3.70;;;;;;;2.40;64.01;99262.50;5134685;27;20047;-65
2020/12/03 05:47:05;;;;;;;8.25;4.25;;;;;;;2.41;64.10;99246.59;5134564;27;20390;-64
2020/12/03 05:49:33;;;;;;;8.95;4.22;;;;;;;2.63;62.36;99268.97;5134264;28;20536;-63
2020/12/03 05:52:16;;;;;;;8.57;4.10;;;;;;;2.40;63.40;99254.94;5134410;28;20040;-64
2020/12/03 05:54:58;;;;;;;8.75;3.95;;;;;;;2.59;63.03;99262.13;5051559;28;20644;-65
2020/12/03 05:57:28;;;;;;;8.38;4.18;;;;;;;2.50;63.34;99261.06;5034927;28;20128;-65
2020/12/03 06:00:05;;;;;;;8.52;3.85;;;;;;;2.54;63.10;99256.13;5051572;28;20048;-65
2020/12/03 06:02:40;;;;;;;7.13;3.97;;;;;;;2.17;63.80;99204.84;5051287;28;20577;-64
2020/12/03 06:05:16;;;;;;;9.98;4.38;;;;;;;2.61;64.04;99262.19;5051185;28;20102;-64
2020/12/03 06:07:56;;;;;;;10.00;4.72;;;;;;;2.77;62.76;99250.78;5051245;28;20509;-65
2020/12/03 06:10:29;;;;;;;7.15;3.28;;;;;;;2.69;63.20;99253.97;5051267;28;20045;-65
2020/12/03 06:13:05;;;;;;;11.40;4.63;;;;;;;2.66;62.34;99248.84;5055342;28;20049;-64
2020/12/03 06:15:37;;;;;;;10.27;4.68;;;;;;;2.81;62.41;99247.53;5055403;28;20053;-64
2020/12/03 06:18:18;;;;;;;8.27;4.13;;;;;;;2.72;62.83;99253.19;5055123;28;20060;-65
2020/12/03 06:21:05;;;;;;;8.13;3.80;;;;;;;2.86;62.53;99250.97;5055002;28;20075;-64
2020/12/03 06:23:39;;;;;;;6.55;3.47;;;;;;;3.08;60.00;99243.09;5055595;28;20049;-64
2020/12/03 06:26:12;;;;;;;7.63;3.67;;;;;;;2.99;60.21;99258.03;5055590;28;20053;-66
2020/12/03 06:29:02;;;;;;;7.70;3.67;;;;;;;2.93;61.11;99245.31;5054922;28;20461;-64
2020/12/03 06:31:32;;;;;;;7.63;3.95;;;;;;;2.88;61.34;99236.78;5082238;27;20043;-64
2020/12/03 06:34:18;;;;;;;8.02;4.03;;;;;;;2.69;61.35;99218.72;5138110;27;20047;-65
2020/12/03 06:36:48;;;;;;;8.93;3.90;;;;;;;3.04;60.44;99251.41;5137970;27;20378;-65
2020/12/03 06:39:40;;;;;;;8.85;4.18;;;;;;;3.05;60.54;99231.28;5137960;27;20073;-64
2020/12/03 06:42:12;;;;;;;8.50;4.07;;;;;;;3.00;60.71;99235.34;5137746;27;20085;-64
2020/12/03 06:44:43;;;;;;;7.35;3.92;;;;;;;3.10;60.33;99236.41;5138198;27;20549;-65
2020/12/03 06:47:25;;;;;;;7.15;3.75;;;;;;;3.17;59.94;99234.06;5119582;27;20118;-65
2020/12/03 06:50:06;;;;;;;8.85;3.25;;;;;;;3.11;59.65;99233.09;5137661;27;20171;-65
2020/12/03 06:52:42;;;;;;;7.95;3.90;;;;;;;3.13;59.63;99231.44;5137564;27;20130;-64
2020/12/03 06:55:21;;;;;;;9.35;3.50;;;;;;;2.94;59.86;99197.44;5137688;27;20050;-65
2020/12/03 06:57:58;;;;;;;8.93;4.00;;;;;;;3.20;59.89;99253.44;5137593;27;20121;-63
2020/12/03 07:00:35;;;;;;;8.65;4.10;;;;;;;3.24;59.95;99253.53;5137588;27;20058;-64
2020/12/03 07:03:15;;;;;;;8.27;4.25;;;;;;;3.10;61.00;99257.44;5137526;27;20130;-64
2020/12/03 07:05:59;;;;;;;7.90;3.80;;;;;;;3.07;60.55;99267.44;5137550;27;20047;-64
2020/12/03 07:08:47;;;;;;;7.38;3.50;;;;;;;3.04;61.45;99276.63;5137401;27;20118;-64
2020/12/03 07:11:36;;;;;;;9.40;4.28;;;;;;;2.92;61.93;99249.47;5137521;27;20408;-63
2020/12/03 07:14:23;;;;;;;7.07;3.75;;;;;;;3.04;61.97;99285.03;5137238;27;20492;-64
2020/12/03 07:17:04;;;;;;;7.38;3.72;;;;;;;3.09;62.29;99286.00;5137315;27;20051;-64
2020/12/03 07:19:50;;;;;;;7.50;3.67;;;;;;;3.07;62.53;99285.09;5137170;27;20057;-64
2020/12/03 07:22:18;;;;;;;9.75;4.13;;;;;;;3.10;61.59;99286.81;5134325;27;20055;-66
2020/12/03 07:24:46;;;;;;;8.07;3.85;;;;;;;3.17;62.03;99293.69;5136914;27;20043;-63
2020/12/03 07:27:34;;;;;;;9.45;4.43;;;;;;;2.82;61.30;99229.06;5137154;27;20413;-64
2020/12/03 07:30:05;;;;;;;8.20;3.78;;;;;;;3.02;62.24;99278.25;5136956;27;20070;-65
2020/12/03 07:32:42;;;;;;;8.55;3.72;;;;;;;3.10;62.31;99285.16;5136906;27;20044;-63
2020/12/03 07:35:20;;;;;;;9.25;3.78;;;;;;;3.18;62.13;99290.38;5137188;27;20073;-63
2020/12/03 07:37:50;;;;;;;8.60;4.63;;;;;;;3.11;63.01;99288.53;5136854;27;20043;-63
2020/12/03 07:40:19;;;;;;;7.28;3.58;;;;;;;3.11;63.69;99298.63;5136809;27;20055;-64
2020/12/03 07:42:47;;;;;;;7.83;4.00;;;;;;;3.07;63.79;99309.47;5136706;27;20059;-64
2020/12/03 07:45:20;;;;;;;8.65;4.43;;;;;;;2.99;65.13;99303.38;5136718;27;20100;-64
2020/12/03 07:48:05;;;;;;;10.88;4.88;;;;;;;2.89;65.48;99294.75;5136739;27;20126;-64
2020/12/03 07:50:38;;;;;;;11.05;4.85;;;;;;;2.91;66.21;99304.88;5136372;27;20062;-63
2020/12/03 07:53:18;;;;;;;10.35;5.43;;;;;;;2.89;66.74;99316.56;5136614;27;20053;-63
2020/12/03 07:55:46;;;;;;;13.75;7.07;;;;;;;2.89;67.68;99326.66;5136410;27;20043;-66
2020/12/03 07:58:20;;;;;;;14.25;7.38;;;;;;;2.89;67.76;99330.03;5136422;27;20551;-63
2020/12/03 08:00:51;;;;;;;16.40;7.35;;;;;;;2.82;68.47;99323.16;5135950;27;20035;-64
2020/12/03 08:03:37;;;;;;;11.80;6.05;;;;;;;2.81;69.85;99325.66;5136439;27;20489;-64
2020/12/03 08:06:12;;;;;;;13.85;6.82;;;;;;;2.72;69.47;99309.47;5125647;27;20082;-64
2020/12/03 08:08:39;;;;;;;15.02;6.22;;;;;;;2.64;70.12;99303.41;5136276;27;20051;-63
2020/12/03 08:11:28;;;;;;;9.40;5.45;;;;;;;2.85;70.64;99314.81;5136424;27;20064;-64
2020/12/03 08:13:58;;;;;;;11.05;4.93;;;;;;;2.87;69.93;99318.22;5136128;27;20073;-64
2020/12/03 08:16:31;;;;;;;11.65;5.15;;;;;;;2.90;70.13;99323.34;5136238;27;20043;-64
2020/12/03 08:19:00;;;;;;;11.38;4.55;;;;;;;2.96;70.21;99313.38;5136092;27;20049;-64
2020/12/03 08:21:42;;;;;;;12.30;4.87;;;;;;;2.97;69.88;99315.09;5135971;27;20096;-65
2020/12/03 08:24:17;;;;;;;11.77;5.32;;;;;;;2.91;69.32;99299.81;5136000;27;20125;-65
2020/12/03 08:26:46;;;;;;;9.63;3.53;;;;;;;3.16;67.42;99322.28;5135867;27;20054;-65
2020/12/03 08:29:25;;;;;;;7.10;3.67;;;;;;;3.55;62.47;99322.28;5133665;27;20050;-66
2020/12/03 08:32:00;;;;;;;8.82;3.65;;;;;;;3.53;62.54;99334.84;5133253;27;20442;-64
2020/12/03 08:34:32;;;;;;;10.48;5.47;;;;;;;3.37;63.62;99317.69;5125648;27;20055;-65
2020/12/03 08:37:01;;;;;;;12.23;5.95;;;;;;;3.36;64.20;99321.88;5115138;28;20039;-63
2020/12/03 08:39:28;;;;;;;13.65;6.70;;;;;;;3.27;65.17;99320.81;5115547;28;20050;-63
2020/12/03 08:41:56;;;;;;;13.77;7.40;;;;;;;3.10;66.71;99301.94;5114982;28;20040;-63
2020/12/03 08:44:24;;;;;;;12.10;6.95;;;;;;;3.22;67.50;99305.59;5114975;28;20046;-63
2020/12/03 08:46:54;;;;;;;11.40;5.68;;;;;;;2.83;67.76;99245.91;5114941;28;20400;-63
2020/12/03 08:49:23;;;;;;;9.77;5.27;;;;;;;3.42;65.47;99315.28;5114548;28;20047;-63
2020/12/03 08:51:57;;;;;;;9.25;4.60;;;;;;;3.42;63.96;99312.75;5114703;28;20047;-63
2020/12/03 08:54:26;;;;;;;6.65;3.08;;;;;;;3.77;60.06;99315.19;5114755;28;20377;-63
2020/12/03 08:56:56;;;;;;;6.85;3.78;;;;;;;3.80;60.00;99305.16;5114702;28;20064;-64
2020/12/03 08:59:28;;;;;;;7.35;3.80;;;;;;;3.86;59.00;99305.25;5116897;27;20130;-63
2020/12/03 09:02:01;;;;;;;6.57;3.05;;;;;;;3.82;59.57;99298.47;5135094;27;20054;-63
2020/12/03 09:04:29;;;;;;;6.70;3.35;;;;;;;3.57;58.08;99230.69;5117007;27;20050;-63
2020/12/03 09:06:58;;;;;;;6.72;3.17;;;;;;;3.98;57.84;99290.34;5134928;27;20125;-63
2020/12/03 09:09:27;;;;;;;7.93;3.33;;;;;;;3.94;57.25;99273.47;5135174;27;20051;-63
2020/12/03 09:11:55;;;;;;;6.05;2.75;;;;;;;4.14;55.88;99281.41;5134925;27;20038;-63
2020/12/03 09:14:25;;;;;;;5.95;2.90;;;;;;;4.25;54.33;99269.81;5135087;27;20092;-63
2020/12/03 09:16:59;;;;;;;5.50;2.50;;;;;;;4.22;54.78;99289.97;5134967;27;20082;-63
2020/12/03 09:19:27;;;;;;;7.90;3.40;;;;;;;4.24;55.63;99285.81;5135220;27;20050;-63
2020/12/03 09:21:55;;;;;;;7.18;2.72;;;;;;;4.32;54.80;99276.66;5134842;27;20492;-63
2020/12/03 09:24:25;;;;;;;5.97;2.70;;;;;;;4.29;55.71;99275.78;5134853;27;20092;-63
2020/12/03 09:27:04;;;;;;;5.72;3.10;;;;;;;4.23;55.68;99255.44;5134818;27;20039;-63
2020/12/03 09:29:32;;;;;;;7.07;3.35;;;;;;;4.27;55.18;99244.59;5134718;27;20080;-63
2020/12/03 09:32:13;;;;;;;5.53;2.47;;;;;;;4.36;54.63;99247.28;5134673;27;20051;-64
2020/12/03 09:34:42;;;;;;;6.18;2.75;;;;;;;4.43;55.12;99249.94;5116502;27;20471;-63
2020/12/03 09:37:10;;;;;;;5.85;2.55;;;;;;;4.35;55.54;99225.34;5134629;27;20493;-64
2020/12/03 09:39:41;;;;;;;6.47;3.05;;;;;;;4.35;55.70;99231.25;5134718;27;20533;-63
2020/12/03 09:42:12;;;;;;;6.38;2.88;;;;;;;4.43;56.36;99233.91;5134595;27;20066;-64
2020/12/03 09:44:47;;;;;;;5.90;2.75;;;;;;;4.23;57.16;99212.53;5133304;27;20039;-64
2020/12/03 09:47:16;;;;;;;6.10;3.08;;;;;;;4.27;57.35;99206.72;5134512;27;20046;-64
2020/12/03 09:49:44;;;;;;;6.32;3.17;;;;;;;4.27;58.08;99217.66;5134273;27;20053;-64
2020/12/03 09:52:12;;;;;;;4.88;2.67;;;;;;;4.37;57.90;99219.50;5134723;28;20046;-64
2020/12/03 09:54:44;;;;;;;6.68;3.20;;;;;;;4.30;58.68;99216.84;5134539;28;20039;-64
2020/12/03 09:57:12;;;;;;;9.15;3.60;;;;;;;4.32;60.15;99220.28;5134401;28;20118;-63
2020/12/03 09:59:42;;;;;;;;;;;;;;;4.38;60.05;99210.25;5134844;28;20050;-63
2020/12/03 10:02:26;;;;;;;7.03;3.25;;;;;;;4.37;60.82;99209.41;5134463;28;20410;-65
2020/12/03 10:05:01;;;;;;;8.52;3.40;;;;;;;4.29;61.97;99184.84;5134366;28;20051;-63
2020/12/03 10:07:43;;;;;;;7.22;3.97;;;;;;;4.26;62.73;99179.75;5134398;28;20058;-65
2020/12/03 10:10:16;;;;;;;7.40;3.25;;;;;;;4.23;63.31;99182.22;5134534;28;20071;-64
2020/12/03 10:12:49;;;;;;;5.85;3.22;;;;;;;4.05;63.30;99148.25;5134210;28;20118;-63
2020/12/03 10:15:47;;;;;;;7.40;3.58;;;;;;;4.19;63.83;99177.94;5134254;28;20039;-65
2020/12/03 10:18:20;;;;;;;7.25;3.20;;;;;;;4.14;64.11;99175.34;5134299;28;20066;-66
2020/12/03 10:20:49;;;;;;;8.60;3.92;;;;;;;4.08;64.39;99166.00;5134260;28;20121;-64
2020/12/03 10:23:26;;;;;;;8.20;3.83;;;;;;;4.12;65.17;99171.09;5134144;28;20051;-63
2020/12/03 10:26:01;;;;;;;10.23;4.15;;;;;;;3.93;66.28;99143.03;5134195;28;20051;-64
2020/12/03 10:28:35;;;;;;;7.50;3.53;;;;;;;4.10;66.03;99165.19;5134146;28;20066;-64
2020/12/03 10:31:03;;;;;;;7.72;3.95;;;;;;;4.10;65.35;99162.66;5134052;28;20046;-64
2020/12/03 10:33:35;;;;;;;7.85;4.05;;;;;;;3.92;66.85;99143.84;5131954;28;20045;-64
2020/12/03 10:36:10;;;;;;;8.35;4.05;;;;;;;3.89;67.90;99138.75;5134144;28;20126;-64
2020/12/03 10:38:44;;;;;;;8.77;4.10;;;;;;;3.83;68.33;99128.56;5134088;28;20061;-65
2020/12/03 10:41:15;;;;;;;7.78;4.00;;;;;;;3.77;68.74;99118.34;5126145;28;20067;-64
2020/12/03 10:43:45;;;;;;;8.23;4.40;;;;;;;3.97;69.34;99152.34;5113503;28;20051;-64
2020/12/03 10:46:18;;;;;;;9.25;5.07;;;;;;;3.93;69.78;99144.72;5113723;28;20051;-65
2020/12/03 10:48:48;;;;;;;14.73;5.85;;;;;;;3.91;70.53;99134.56;5113733;28;20071;-64
2020/12/03 10:51:22;;;;;;;9.52;4.85;;;;;;;3.89;70.82;99138.75;5072753;28;20101;-64
2020/12/03 10:53:50;;;;;;;10.80;4.80;;;;;;;3.80;69.55;99113.34;5072782;28;20059;-65
2020/12/03 10:56:26;;;;;;;9.38;4.57;;;;;;;3.98;69.69;99148.16;5072822;28;20083;-64
2020/12/03 10:59:29;;;;;;;8.02;4.40;;;;;;;3.95;69.82;99151.50;5076457;28;20053;-65
2020/12/03 11:02:00;;;;;;;8.15;4.10;;;;;;;3.86;69.41;99136.16;5076430;28;20102;-65
2020/12/03 11:04:28;;;;;;;7.45;3.97;;;;;;;3.81;69.83;99127.69;5076476;28;20124;-65
2020/12/03 11:06:57;;;;;;;8.85;4.57;;;;;;;3.78;70.86;99130.16;5076303;28;20114;-65
2020/12/03 11:09:27;;;;;;;8.00;3.90;;;;;;;3.71;70.22;99128.34;5083450;28;20051;-64
2020/12/03 11:11:56;;;;;;;8.95;3.90;;;;;;;3.69;70.21;99124.97;5091617;28;20044;-65
2020/12/03 11:14:24;;;;;;;8.70;4.03;;;;;;;3.70;70.69;99129.16;5090877;28;20063;-65
2020/12/03 11:16:55;;;;;;;7.67;3.57;;;;;;;3.65;70.89;99117.28;5080335;28;20544;-64
2020/12/03 11:19:43;;;;;;;7.72;4.00;;;;;;;3.68;70.73;99123.25;5075879;28;20288;-64
2020/12/03 11:22:21;;;;;;;6.40;3.35;;;;;;;3.62;70.75;99102.13;5084790;28;20037;-67
2020/12/03 11:24:49;;;;;;;7.78;3.70;;;;;;;3.71;70.97;99112.34;5082938;28;20054;-65
2020/12/03 11:27:19;;;;;;;8.88;3.50;;;;;;;3.82;69.53;99109.19;5096139;28;20101;-66
2020/12/03 11:29:47;;;;;;;9.18;4.13;;;;;;;3.91;69.22;99101.75;5075877;28;20056;-64
2020/12/03 11:32:21;;;;;;;9.65;4.65;;;;;;;3.90;68.78;99097.56;5075709;28;20045;-65
2020/12/03 11:34:52;;;;;;;10.05;4.22;;;;;;;3.79;68.60;99096.50;5075845;28;20041;-64
2020/12/03 11:37:22;;;;;;;10.20;4.28;;;;;;;3.83;67.65;99085.66;5081142;28;20075;-65
2020/12/03 11:40:02;;;;;;;8.65;3.90;;;;;;;3.80;67.37;99083.09;5096190;28;20047;-64
2020/12/03 11:42:42;;;;;;;9.00;4.20;;;;;;;3.82;67.76;99094.03;5095914;28;20405;-64
2020/12/03 11:48:03;;;;;;;10.38;4.55;;;;;;;3.51;67.32;99033.81;5093420;28;20036;-64
2020/12/03 11:50:35;;;;;;;9.18;4.20;;;;;;;3.92;65.34;99085.81;5110187;27;20074;-64
2020/12/03 11:53:06;;;;;;;10.00;5.55;;;;;;;4.01;65.27;99093.50;5121852;27;20062;-63
2020/12/03 11:55:37;;;;;;;9.85;5.10;;;;;;;3.97;64.75;99091.78;5136207;27;20070;-64
2020/12/03 11:58:08;;;;;;;9.60;4.47;;;;;;;3.88;65.90;99076.50;5135858;27;20054;-64
2020/12/03 12:00:35;;;;;;;6.13;3.63;;;;;;;3.95;65.90;99083.34;5136487;27;20100;-64